Time;durP1;ratioP1;P1;durP2;ratioP2;P2;SDS_P1;SDS_P2;PMS_P1;PMS_P2;Temp;Humidity;BMP_temperature;BMP_pressure;BME280_temperature;BME280_humidity;BME280_pressure;Samples;Min_cycle;Max_cycle;Signal;HPM_P1;HPM_P2
2021/11/29 00:02:00;;;;;;;30.13;19.10;;;;;;;;;;5018492;28;20044;-69
2021/11/29 00:04:26;;;;;;;30.98;17.15;;;;;;;;;;5030178;28;20054;-69
2021/11/29 00:06:52;;;;;;;30.48;18.85;;;;;;;;;;5020531;28;20103;-69
2021/11/29 00:09:18;;;;;;;43.00;22.70;;;;;;;;;;5023790;28;20120;-69
2021/11/29 00:11:44;;;;;;;33.53;18.90;;;;;;;;;;5017520;28;20059;-70
2021/11/29 00:14:11;;;;;;;33.50;18.65;;;;;;;;;;5015504;28;20121;-69
2021/11/29 00:16:37;;;;;;;39.33;19.60;;;;;;;;;;5027981;28;20259;-70
2021/11/29 00:19:05;;;;;;;36.42;18.67;;;;;;;;;;5021962;28;20570;-70
2021/11/29 00:21:34;;;;;;;37.75;20.95;;;;;;;;;;5021609;28;20156;-69
2021/11/29 00:24:01;;;;;;;34.90;19.45;;;;;;;;;;5029431;28;20041;-69
2021/11/29 00:26:27;;;;;;;36.50;19.48;;;;;;;;;;5017062;28;20033;-69
2021/11/29 00:28:53;;;;;;;31.17;17.33;;;;;;;;;;5025328;28;20476;-69
2021/11/29 00:31:20;;;;;;;32.00;18.58;;;;;;;;;;5022324;28;20056;-68
2021/11/29 00:33:46;;;;;;;33.78;18.85;;;;;;;;;;5018549;28;20065;-69
2021/11/29 00:36:14;;;;;;;35.25;19.40;;;;;;;;;;5029933;28;20025;-69
2021/11/29 00:38:41;;;;;;;28.17;17.10;;;;;;;;;;5018377;28;20024;-69
2021/11/29 00:41:07;;;;;;;31.75;17.80;;;;;;;;;;5024610;28;20026;-69
2021/11/29 00:43:33;;;;;;;30.20;18.23;;;;;;;;;;5024853;28;20021;-69
2021/11/29 00:45:59;;;;;;;27.85;17.60;;;;;;;;;;5017547;28;20026;-69
2021/11/29 00:48:25;;;;;;;28.83;17.17;;;;;;;;;;5019805;28;20125;-68
2021/11/29 00:50:51;;;;;;;31.70;18.83;;;;;;;;;;5026127;28;20037;-68
2021/11/29 00:53:17;;;;;;;29.88;18.00;;;;;;;;;;5022778;28;20026;-70
2021/11/29 00:55:43;;;;;;;29.80;17.60;;;;;;;;;;5026768;28;20070;-69
2021/11/29 00:58:09;;;;;;;31.92;17.38;;;;;;;;;;5016416;28;20446;-70
2021/11/29 01:00:36;;;;;;;25.50;16.35;;;;;;;;;;5028737;28;20022;-69
2021/11/29 01:03:02;;;;;;;26.83;16.88;;;;;;;;;;5020535;28;20403;-69
2021/11/29 01:05:30;;;;;;;27.17;16.00;;;;;;;;;;5021352;28;20499;-69
2021/11/29 01:07:56;;;;;;;28.45;16.83;;;;;;;;;;5028028;28;20022;-70
2021/11/29 01:10:22;;;;;;;24.10;15.02;;;;;;;;;;5016435;28;20050;-69
2021/11/29 01:12:48;;;;;;;24.92;15.65;;;;;;;;;;5014452;28;20829;-69
2021/11/29 01:15:19;;;;;;;27.42;15.68;;;;;;;;;;5022285;28;20025;-69
2021/11/29 01:17:45;;;;;;;22.70;14.32;;;;;;;;;;5017345;28;20036;-69
2021/11/29 01:20:12;;;;;;;23.90;14.75;;;;;;;;;;5029172;28;20112;-70
2021/11/29 01:22:39;;;;;;;22.98;15.07;;;;;;;;;;5017052;28;20025;-71
2021/11/29 01:25:05;;;;;;;25.00;14.80;;;;;;;;;;5024034;28;20108;-69
2021/11/29 01:27:31;;;;;;;24.67;14.88;;;;;;;;;;5024332;28;20021;-69
2021/11/29 01:29:57;;;;;;;23.83;15.15;;;;;;;;;;5016775;28;20084;-69
2021/11/29 01:32:23;;;;;;;20.77;14.02;;;;;;;;;;5028939;28;20025;-69
2021/11/29 01:34:49;;;;;;;27.60;15.52;;;;;;;;;;5018475;28;20087;-69
2021/11/29 01:37:15;;;;;;;21.55;14.68;;;;;;;;;;5022683;28;20105;-69
2021/11/29 01:39:41;;;;;;;22.05;14.05;;;;;;;;;;5025709;28;20060;-69
2021/11/29 01:42:08;;;;;;;24.45;14.13;;;;;;;;;;5014488;28;20462;-69
2021/11/29 01:44:34;;;;;;;22.50;13.95;;;;;;;;;;5026435;28;20056;-69
2021/11/29 01:47:00;;;;;;;21.10;13.90;;;;;;;;;;5016046;28;20542;-69
2021/11/29 01:49:26;;;;;;;26.63;14.80;;;;;;;;;;5021384;28;20104;-67
2021/11/29 01:51:52;;;;;;;22.83;13.93;;;;;;;;;;5026801;28;20083;-69
2021/11/29 01:54:18;;;;;;;25.40;14.48;;;;;;;;;;5014869;28;20023;-69
2021/11/29 01:56:46;;;;;;;26.45;14.15;;;;;;;;;;5026032;28;20018;-69
2021/11/29 01:59:12;;;;;;;25.15;14.85;;;;;;;;;;5021225;28;20034;-69
2021/11/29 02:01:38;;;;;;;18.60;13.07;;;;;;;;;;5017649;28;20026;-69
2021/11/29 02:04:05;;;;;;;23.30;13.48;;;;;;;;;;5027995;28;20036;-69
2021/11/29 02:06:32;;;;;;;21.80;13.48;;;;;;;;;;5015520;28;20025;-69
2021/11/29 02:08:58;;;;;;;24.75;15.38;;;;;;;;;;5024332;28;20119;-69
2021/11/29 02:11:25;;;;;;;23.85;14.43;;;;;;;;;;5015326;28;20105;-69
2021/11/29 02:13:54;;;;;;;23.58;14.45;;;;;;;;;;5012416;28;20030;-69
2021/11/29 02:16:20;;;;;;;24.38;14.90;;;;;;;;;;5027927;28;20036;-69
2021/11/29 02:18:46;;;;;;;22.80;13.85;;;;;;;;;;5017413;28;20052;-69
2021/11/29 02:21:18;;;;;;;22.42;14.20;;;;;;;;;;5022125;28;20025;-69
2021/11/29 02:23:49;;;;;;;23.00;14.27;;;;;;;;;;5025133;28;20030;-69
2021/11/29 02:26:15;;;;;;;18.45;12.13;;;;;;;;;;5014783;28;20073;-69
2021/11/29 02:28:43;;;;;;;22.30;14.00;;;;;;;;;;5026511;28;20037;-69
2021/11/29 02:31:10;;;;;;;21.42;13.50;;;;;;;;;;5020389;28;20056;-69
2021/11/29 02:33:37;;;;;;;22.63;13.98;;;;;;;;;;5018642;28;20391;-70
2021/11/29 02:36:03;;;;;;;22.63;13.32;;;;;;;;;;5027786;28;20029;-68
2021/11/29 02:38:29;;;;;;;24.70;14.10;;;;;;;;;;5014861;28;20068;-68
2021/11/29 02:40:56;;;;;;;28.10;13.85;;;;;;;;;;5024191;28;20029;-70
2021/11/29 02:43:22;;;;;;;23.27;13.90;;;;;;;;;;5022110;28;20048;-69
2021/11/29 02:45:48;;;;;;;19.85;12.52;;;;;;;;;;5016012;28;20025;-69
2021/11/29 02:48:14;;;;;;;21.30;13.23;;;;;;;;;;5016594;28;20080;-69
2021/11/29 02:50:40;;;;;;;24.52;14.23;;;;;;;;;;5024147;28;20033;-69
2021/11/29 02:53:07;;;;;;;21.35;13.20;;;;;;;;;;5022659;28;20028;-69
2021/11/29 02:55:33;;;;;;;21.77;14.70;;;;;;;;;;5023294;28;20021;-69
2021/11/29 02:57:59;;;;;;;21.30;14.25;;;;;;;;;;5015438;28;20088;-69
2021/11/29 03:00:25;;;;;;;19.50;12.98;;;;;;;;;;5027802;28;20444;-70
2021/11/29 03:03:05;;;;;;;21.50;13.32;;;;;;;;;;5017831;28;20119;-69
2021/11/29 03:05:31;;;;;;;19.08;13.35;;;;;;;;;;5019365;28;20080;-69
2021/11/29 03:07:57;;;;;;;19.33;13.38;;;;;;;;;;5030152;28;20099;-68
2021/11/29 03:10:23;;;;;;;19.60;12.50;;;;;;;;;;5018453;28;20041;-69
2021/11/29 03:12:49;;;;;;;22.27;13.65;;;;;;;;;;5016608;28;20053;-69
2021/11/29 03:15:15;;;;;;;19.85;13.20;;;;;;;;;;5024703;28;20466;-69
2021/11/29 03:17:41;;;;;;;21.00;13.88;;;;;;;;;;5020084;28;20029;-68
2021/11/29 03:20:10;;;;;;;19.60;13.40;;;;;;;;;;5030101;28;20475;-68
2021/11/29 03:22:36;;;;;;;20.88;14.68;;;;;;;;;;5019203;28;20022;-69
2021/11/29 03:25:03;;;;;;;19.23;12.80;;;;;;;;;;5026675;28;20041;-69
2021/11/29 03:27:29;;;;;;;22.30;13.43;;;;;;;;;;5026312;28;20044;-69
2021/11/29 03:29:55;;;;;;;21.67;13.85;;;;;;;;;;5019453;28;20021;-69
2021/11/29 03:32:22;;;;;;;22.00;13.73;;;;;;;;;;5030921;28;20074;-68
2021/11/29 03:34:49;;;;;;;23.83;14.88;;;;;;;;;;5020610;28;20049;-68
2021/11/29 03:37:16;;;;;;;19.52;13.35;;;;;;;;;;5023155;28;20025;-68
2021/11/29 03:39:42;;;;;;;23.42;14.25;;;;;;;;;;5026652;28;20022;-69
2021/11/29 03:42:08;;;;;;;18.48;13.63;;;;;;;;;;5017869;28;20029;-68
2021/11/29 03:44:35;;;;;;;22.38;13.55;;;;;;;;;;5030048;28;20029;-68
2021/11/29 03:47:01;;;;;;;25.52;14.32;;;;;;;;;;5018311;28;20022;-70
2021/11/29 03:49:27;;;;;;;19.65;12.98;;;;;;;;;;5022286;28;20025;-69
2021/11/29 03:51:53;;;;;;;25.13;15.48;;;;;;;;;;5029072;28;20033;-69
2021/11/29 03:54:20;;;;;;;24.50;15.00;;;;;;;;;;5017413;28;20423;-69
2021/11/29 03:56:46;;;;;;;21.98;13.55;;;;;;;;;;5028359;28;20018;-69
2021/11/29 03:59:12;;;;;;;22.98;13.60;;;;;;;;;;5023422;28;20033;-69
2021/11/29 04:01:38;;;;;;;20.58;14.32;;;;;;;;;;5021133;28;20117;-69
2021/11/29 04:04:04;;;;;;;24.70;14.85;;;;;;;;;;5030231;28;20144;-68
2021/11/29 04:06:31;;;;;;;25.38;14.32;;;;;;;;;;5001349;28;20382;-68
2021/11/29 04:08:57;;;;;;;22.77;14.43;;;;;;;;;;5026796;28;20025;-69
2021/11/29 04:11:23;;;;;;;20.27;13.23;;;;;;;;;;5017562;28;20068;-69
2021/11/29 04:13:49;;;;;;;22.70;14.38;;;;;;;;;;5014768;28;20091;-68
2021/11/29 04:16:17;;;;;;;24.67;14.27;;;;;;;;;;5030242;28;20033;-69
2021/11/29 04:18:43;;;;;;;22.20;14.60;;;;;;;;;;5030419;22;20056;-66
2021/11/29 04:21:10;;;;;;;24.35;15.40;;;;;;;;;;5015825;28;20479;-68
2021/11/29 04:23:36;;;;;;;21.20;13.82;;;;;;;;;;5033635;28;20033;-67
2021/11/29 04:26:03;;;;;;;19.17;13.48;;;;;;;;;;5032425;28;20406;-67
2021/11/29 04:28:29;;;;;;;25.63;14.38;;;;;;;;;;5033711;28;20148;-67
2021/11/29 04:30:55;;;;;;;21.25;14.50;;;;;;;;;;5033459;28;20108;-67
2021/11/29 04:33:22;;;;;;;22.20;14.65;;;;;;;;;;5033196;28;20096;-68
2021/11/29 04:35:48;;;;;;;20.52;14.07;;;;;;;;;;5033547;28;20120;-68
2021/11/29 04:38:15;;;;;;;23.55;14.75;;;;;;;;;;5031973;28;20025;-67
2021/11/29 04:40:41;;;;;;;21.17;14.48;;;;;;;;;;5033343;28;20010;-67
2021/11/29 04:43:08;;;;;;;22.25;15.27;;;;;;;;;;5033145;28;20320;-66
2021/11/29 04:45:34;;;;;;;21.80;14.27;;;;;;;;;;5033284;28;20053;-66
2021/11/29 04:48:00;;;;;;;23.05;14.90;;;;;;;;;;5021063;28;20029;-67
2021/11/29 04:50:26;;;;;;;25.60;15.57;;;;;;;;;;5025564;28;20072;-67
2021/11/29 04:52:52;;;;;;;23.55;14.60;;;;;;;;;;5032866;28;20032;-67
2021/11/29 04:55:18;;;;;;;24.13;16.25;;;;;;;;;;5033161;28;20100;-67
2021/11/29 04:57:44;;;;;;;23.20;15.00;;;;;;;;;;5032751;28;20489;-68
2021/11/29 05:00:12;;;;;;;24.80;15.20;;;;;;;;;;5032917;28;20025;-67
2021/11/29 05:02:38;;;;;;;22.90;14.63;;;;;;;;;;5033437;28;20145;-67
2021/11/29 05:05:05;;;;;;;20.40;14.23;;;;;;;;;;5032974;28;20022;-67
2021/11/29 05:07:31;;;;;;;21.17;14.75;;;;;;;;;;5032814;28;20390;-67
2021/11/29 05:09:57;;;;;;;24.63;15.32;;;;;;;;;;5020634;28;20500;-68
2021/11/29 05:12:23;;;;;;;23.95;15.50;;;;;;;;;;5015610;28;20121;-67
2021/11/29 05:14:49;;;;;;;21.67;14.32;;;;;;;;;;5017544;28;20021;-67
2021/11/29 05:17:16;;;;;;;26.95;16.05;;;;;;;;;;5032191;28;20026;-67
2021/11/29 05:19:42;;;;;;;22.85;14.70;;;;;;;;;;5032669;28;20026;-67
2021/11/29 05:22:08;;;;;;;21.95;14.88;;;;;;;;;;5032373;28;20033;-68
2021/11/29 05:24:34;;;;;;;20.23;14.55;;;;;;;;;;5032117;28;20463;-68
2021/11/29 05:27:00;;;;;;;22.30;15.07;;;;;;;;;;5032239;28;20438;-68
2021/11/29 05:29:26;;;;;;;24.55;15.15;;;;;;;;;;5030683;28;20091;-67
2021/11/29 05:31:52;;;;;;;25.23;16.20;;;;;;;;;;5031535;28;20113;-67
2021/11/29 05:34:19;;;;;;;23.38;15.27;;;;;;;;;;5029505;28;20079;-67
2021/11/29 05:36:45;;;;;;;22.23;15.10;;;;;;;;;;5032132;28;20040;-67
2021/11/29 05:39:14;;;;;;;24.85;16.08;;;;;;;;;;5032327;28;20103;-67
2021/11/29 05:41:40;;;;;;;23.90;16.17;;;;;;;;;;5032335;28;20467;-67
2021/11/29 05:44:06;;;;;;;23.60;14.25;;;;;;;;;;5031696;28;20471;-67
2021/11/29 05:46:32;;;;;;;23.58;14.88;;;;;;;;;;5031861;28;20025;-67
2021/11/29 05:48:58;;;;;;;22.58;15.13;;;;;;;;;;5018753;28;20036;-67
2021/11/29 05:51:26;;;;;;;23.13;16.10;;;;;;;;;;5024700;28;20505;-68
2021/11/29 05:53:52;;;;;;;23.15;14.75;;;;;;;;;;5031720;28;20490;-67
2021/11/29 05:56:18;;;;;;;31.33;17.10;;;;;;;;;;5031783;28;20224;-66
2021/11/29 05:58:45;;;;;;;22.17;14.90;;;;;;;;;;5031566;28;20014;-67
2021/11/29 06:01:11;;;;;;;25.98;15.98;;;;;;;;;;5031732;28;20039;-68
2021/11/29 06:03:37;;;;;;;27.00;16.13;;;;;;;;;;5031672;28;20535;-67
2021/11/29 06:06:03;;;;;;;27.45;16.38;;;;;;;;;;5032220;28;20025;-67
2021/11/29 06:08:32;;;;;;;25.45;16.45;;;;;;;;;;4998943;28;20056;-67
2021/11/29 06:10:59;;;;;;;29.08;17.42;;;;;;;;;;5027806;28;20033;-68
2021/11/29 06:13:25;;;;;;;30.52;18.50;;;;;;;;;;5012456;28;20022;-68
2021/11/29 06:15:51;;;;;;;29.67;18.35;;;;;;;;;;5026291;28;20049;-67
2021/11/29 06:18:17;;;;;;;28.98;18.55;;;;;;;;;;5031168;28;20072;-68
2021/11/29 06:20:43;;;;;;;29.33;17.48;;;;;;;;;;5031373;28;20060;-67
2021/11/29 06:23:10;;;;;;;25.83;16.83;;;;;;;;;;5031157;28;20025;-67
2021/11/29 06:25:38;;;;;;;28.25;17.50;;;;;;;;;;5029991;28;20430;-67
2021/11/29 06:28:05;;;;;;;25.80;16.25;;;;;;;;;;5031444;28;20029;-68
2021/11/29 06:30:31;;;;;;;27.05;17.02;;;;;;;;;;4999079;28;20017;-68
2021/11/29 06:32:57;;;;;;;25.60;17.98;;;;;;;;;;5030923;28;20032;-68
2021/11/29 06:35:23;;;;;;;30.20;17.83;;;;;;;;;;5031152;28;20056;-68
2021/11/29 06:37:55;;;;;;;26.67;17.15;;;;;;;;;;5031104;28;20051;-67
2021/11/29 06:40:21;;;;;;;28.65;17.95;;;;;;;;;;5031259;28;20394;-67
2021/11/29 06:42:48;;;;;;;28.75;18.77;;;;;;;;;;5034610;28;20089;-67
2021/11/29 06:45:14;;;;;;;27.63;18.50;;;;;;;;;;5035748;28;20083;-66
2021/11/29 06:47:42;;;;;;;30.50;19.67;;;;;;;;;;5025695;28;20037;-68
2021/11/29 06:50:08;;;;;;;31.13;19.63;;;;;;;;;;5025122;28;20113;-67
2021/11/29 06:52:34;;;;;;;27.67;18.42;;;;;;;;;;5034941;28;20479;-67
2021/11/29 06:55:00;;;;;;;30.27;19.17;;;;;;;;;;5034697;28;20017;-66
2021/11/29 06:57:26;;;;;;;27.90;19.25;;;;;;;;;;5034893;28;20037;-68
2021/11/29 06:59:53;;;;;;;30.90;19.98;;;;;;;;;;5035017;28;20032;-67
2021/11/29 07:02:19;;;;;;;29.33;19.70;;;;;;;;;;5035006;28;20128;-68
2021/11/29 07:04:45;;;;;;;31.63;19.45;;;;;;;;;;5033341;28;20053;-67
2021/11/29 07:07:11;;;;;;;36.25;19.88;;;;;;;;;;5033844;28;20025;-67
2021/11/29 07:09:38;;;;;;;29.38;19.48;;;;;;;;;;5033768;28;20029;-67
2021/11/29 07:12:05;;;;;;;36.40;20.80;;;;;;;;;;5021362;28;20061;-67
2021/11/29 07:14:32;;;;;;;32.75;20.42;;;;;;;;;;5016943;28;20072;-67
2021/11/29 07:16:58;;;;;;;31.40;20.15;;;;;;;;;;5034830;28;21406;-67
2021/11/29 07:19:24;;;;;;;31.23;19.20;;;;;;;;;;5033351;28;20060;-67
2021/11/29 07:21:52;;;;;;;33.40;20.17;;;;;;;;;;5033288;28;20471;-67
2021/11/29 07:24:18;;;;;;;27.25;18.05;;;;;;;;;;5034044;28;20036;-67
2021/11/29 07:26:45;;;;;;;30.52;19.42;;;;;;;;;;5033116;28;20082;-67
2021/11/29 07:29:12;;;;;;;39.47;20.65;;;;;;;;;;5034346;28;20040;-66
2021/11/29 07:31:40;;;;;;;33.30;19.90;;;;;;;;;;5034272;28;20051;-66
2021/11/29 07:34:06;;;;;;;34.38;21.73;;;;;;;;;;5034195;28;20018;-68
2021/11/29 07:36:32;;;;;;;32.58;21.83;;;;;;;;;;5034393;28;20089;-66
2021/11/29 07:38:58;;;;;;;33.72;22.13;;;;;;;;;;5034117;28;20050;-73
2021/11/29 07:41:24;;;;;;;37.67;23.15;;;;;;;;;;5034171;28;20402;-68
2021/11/29 07:43:50;;;;;;;39.75;23.83;;;;;;;;;;5034225;28;20576;-67
2021/11/29 07:46:17;;;;;;;39.85;22.70;;;;;;;;;;5034286;28;20029;-68
2021/11/29 07:48:43;;;;;;;38.30;23.77;;;;;;;;;;5021699;28;20395;-69
2021/11/29 07:51:12;;;;;;;39.58;23.38;;;;;;;;;;5026580;28;20108;-70
2021/11/29 07:53:38;;;;;;;35.92;23.45;;;;;;;;;;5032450;28;20033;-68
2021/11/29 07:56:04;;;;;;;41.35;23.08;;;;;;;;;;5032657;28;20372;-68
2021/11/29 07:58:30;;;;;;;38.33;22.83;;;;;;;;;;5033854;28;20096;-68
2021/11/29 08:00:56;;;;;;;41.97;23.55;;;;;;;;;;5033490;28;20056;-68
2021/11/29 08:03:22;;;;;;;43.95;24.25;;;;;;;;;;5033493;28;20467;-68
2021/11/29 08:05:48;;;;;;;46.10;25.15;;;;;;;;;;5033761;28;20225;-68
2021/11/29 08:08:14;;;;;;;42.25;24.00;;;;;;;;;;5017122;28;20092;-68
2021/11/29 08:10:41;;;;;;;39.55;24.33;;;;;;;;;;5030846;28;20508;-68
2021/11/29 08:13:08;;;;;;;40.80;24.52;;;;;;;;;;5014612;28;20060;-68
2021/11/29 08:15:36;;;;;;;34.33;22.73;;;;;;;;;;5025230;28;20441;-67
2021/11/29 08:18:03;;;;;;;36.40;21.55;;;;;;;;;;5033339;28;20033;-67
2021/11/29 08:20:29;;;;;;;35.33;21.60;;;;;;;;;;5029933;28;20099;-68
2021/11/29 08:22:55;;;;;;;34.88;21.38;;;;;;;;;;5020828;28;20109;-69
2021/11/29 08:25:21;;;;;;;36.58;24.25;;;;;;;;;;5022316;28;20025;-69
2021/11/29 08:27:48;;;;;;;38.28;23.13;;;;;;;;;;5021374;28;20022;-71
2021/11/29 08:30:16;;;;;;;35.78;21.33;;;;;;;;;;5030537;28;20041;-69
2021/11/29 08:32:42;;;;;;;33.58;21.83;;;;;;;;;;5020559;28;20021;-69
2021/11/29 08:35:12;;;;;;;35.30;21.00;;;;;;;;;;5032868;28;20064;-69
2021/11/29 08:37:39;;;;;;;39.72;24.92;;;;;;;;;;5026083;28;20025;-68
2021/11/29 08:40:06;;;;;;;36.33;22.77;;;;;;;;;;5021378;28;20427;-69
2021/11/29 08:42:32;;;;;;;38.60;23.45;;;;;;;;;;5032765;28;20022;-70
2021/11/29 08:44:58;;;;;;;36.70;23.52;;;;;;;;;;5033054;28;20025;-70
2021/11/29 08:47:27;;;;;;;40.05;23.70;;;;;;;;;;5033042;28;20029;-70
2021/11/29 08:49:53;;;;;;;36.40;23.23;;;;;;;;;;5032996;28;20028;-69
2021/11/29 08:52:19;;;;;;;42.65;25.42;;;;;;;;;;5032779;28;20030;-70
2021/11/29 08:54:45;;;;;;;35.22;21.95;;;;;;;;;;5032586;28;20017;-69
2021/11/29 08:57:11;;;;;;;34.78;21.73;;;;;;;;;;5024911;28;20029;-70
2021/11/29 08:59:37;;;;;;;38.22;23.52;;;;;;;;;;5025257;28;20031;-71
2021/11/29 09:02:03;;;;;;;37.35;22.60;;;;;;;;;;5031703;28;20109;-69
2021/11/29 09:04:30;;;;;;;36.38;23.52;;;;;;;;;;5030571;28;20120;-69
2021/11/29 09:06:56;;;;;;;63.53;36.65;;;;;;;;;;5032605;28;20524;-69
2021/11/29 09:09:23;;;;;;;76.30;32.92;;;;;;;;;;5032503;28;20029;-70
2021/11/29 09:11:49;;;;;;;46.13;28.23;;;;;;;;;;5032677;28;20048;-70
2021/11/29 09:14:15;;;;;;;52.88;29.40;;;;;;;;;;5032220;28;20025;-69
2021/11/29 09:16:42;;;;;;;44.90;25.58;;;;;;;;;;5032434;28;20014;-69
2021/11/29 09:19:08;;;;;;;42.03;23.67;;;;;;;;;;5032063;28;20048;-71
2021/11/29 09:21:35;;;;;;;37.40;23.27;;;;;;;;;;5032361;28;20053;-70
2021/11/29 09:24:01;;;;;;;40.67;24.02;;;;;;;;;;5030756;28;20033;-70
2021/11/29 09:26:27;;;;;;;34.63;20.10;;;;;;;;;;5032521;28;20029;-70
2021/11/29 09:28:53;;;;;;;104.15;52.42;;;;;;;;;;5032242;28;20052;-71
2021/11/29 09:31:20;;;;;;;43.20;25.92;;;;;;;;;;5024203;28;20459;-70
2021/11/29 09:33:46;;;;;;;42.40;24.92;;;;;;;;;;5025553;28;20104;-71
2021/11/29 09:36:12;;;;;;;42.90;24.58;;;;;;;;;;5032376;28;20044;-70
2021/11/29 09:38:38;;;;;;;53.25;29.70;;;;;;;;;;5031365;28;20025;-69
2021/11/29 09:41:05;;;;;;;58.90;33.13;;;;;;;;;;5029213;28;20549;-69
2021/11/29 09:43:31;;;;;;;52.70;29.85;;;;;;;;;;5032063;28;20029;-69
2021/11/29 09:45:57;;;;;;;73.60;40.03;;;;;;;;;;5032442;28;20072;-70
2021/11/29 09:48:23;;;;;;;52.85;27.20;;;;;;;;;;5025973;28;20103;-71
2021/11/29 09:50:53;;;;;;;45.20;24.88;;;;;;;;;;5032347;28;20021;-70
2021/11/29 09:53:20;;;;;;;60.08;33.40;;;;;;;;;;5032434;28;20022;-71
2021/11/29 09:55:46;;;;;;;47.05;27.20;;;;;;;;;;5033185;28;20022;-68
2021/11/29 09:58:12;;;;;;;40.17;22.77;;;;;;;;;;5032265;28;20105;-69
2021/11/29 10:00:41;;;;;;;38.70;22.52;;;;;;;;;;5024434;28;20029;-71
2021/11/29 10:03:07;;;;;;;37.30;21.90;;;;;;;;;;5031579;28;20041;-69
2021/11/29 10:05:35;;;;;;;39.22;23.65;;;;;;;;;;5031637;28;20044;-69
2021/11/29 10:08:17;;;;;;;56.58;29.08;;;;;;;;;;5031859;28;20028;-69
2021/11/29 10:10:43;;;;;;;;;;;;;;;;;;5002044;28;20493;-70
2021/11/29 10:13:09;;;;;;;40.33;21.08;;;;;;;;;;5030050;28;19955;-70
2021/11/29 10:15:36;;;;;;;55.50;28.40;;;;;;;;;;5029639;28;20037;-69
2021/11/29 10:18:09;;;;;;;57.90;32.55;;;;;;;;;;5058804;22;20049;-75
2021/11/29 10:20:45;;;;;;;74.28;36.78;;;;;;;;;;5047510;28;20075;-77
2021/11/29 10:23:13;;;;;;;50.08;29.00;;;;;;;;;;5039586;28;20033;-76
2021/11/29 10:25:44;;;;;;;33.05;20.75;;;;;;;;;;5048073;28;20029;-74
2021/11/29 10:28:28;;;;;;;59.90;31.75;;;;;;;;;;5034644;28;20038;-74
2021/11/29 10:31:15;;;;;;;61.35;32.55;;;;;;;;;;4999296;28;20025;-72
2021/11/29 10:33:50;;;;;;;54.20;25.63;;;;;;;;;;5022867;28;20020;-73
2021/11/29 10:36:17;;;;;;;52.03;28.50;;;;;;;;;;5031069;28;20383;-72
2021/11/29 10:38:44;;;;;;;31.42;19.13;;;;;;;;;;5031170;28;20021;-74
2021/11/29 10:41:10;;;;;;;48.40;24.02;;;;;;;;;;5029886;28;20482;-75
2021/11/29 10:43:40;;;;;;;47.47;25.58;;;;;;;;;;5031176;28;20036;-74
2021/11/29 10:46:24;;;;;;;61.42;29.00;;;;;;;;;;5031225;28;20032;-72
2021/11/29 10:48:51;;;;;;;36.38;20.63;;;;;;;;;;5003244;28;20022;-73
2021/11/29 10:51:19;;;;;;;38.63;21.58;;;;;;;;;;5031426;28;20084;-73
2021/11/29 10:53:46;;;;;;;32.03;18.83;;;;;;;;;;5030746;28;20483;-72
2021/11/29 10:56:12;;;;;;;48.53;25.40;;;;;;;;;;5029573;28;20049;-73
2021/11/29 10:58:42;;;;;;;28.40;18.42;;;;;;;;;;5029983;28;20028;-72
2021/11/29 11:01:09;;;;;;;65.47;32.40;;;;;;;;;;5031275;28;20026;-73
2021/11/29 11:03:52;;;;;;;40.63;21.15;;;;;;;;;;5031208;28;20021;-72
2021/11/29 11:06:26;;;;;;;37.83;21.85;;;;;;;;;;5031284;28;20028;-73
2021/11/29 11:08:52;;;;;;;45.55;23.45;;;;;;;;;;5031154;28;20018;-74
2021/11/29 11:11:41;;;;;;;43.78;23.50;;;;;;;;;;5031163;28;20444;-72
2021/11/29 11:14:23;;;;;;;34.88;20.63;;;;;;;;;;5031114;28;20029;-74
2021/11/29 11:16:54;;;;;;;40.08;22.42;;;;;;;;;;5001310;28;20024;-71
2021/11/29 11:19:23;;;;;;;35.05;20.73;;;;;;;;;;5030743;28;20556;-70
2021/11/29 11:21:53;;;;;;;34.88;18.60;;;;;;;;;;5025438;28;20117;-75
2021/11/29 11:24:19;;;;;;;33.88;20.05;;;;;;;;;;5013017;28;20030;-74
2021/11/29 11:26:46;;;;;;;101.55;45.92;;;;;;;;;;5029918;28;20025;-75
2021/11/29 11:29:13;;;;;;;111.13;46.00;;;;;;;;;;5027534;28;20076;-75
2021/11/29 11:31:39;;;;;;;146.75;59.17;;;;;;;;;;5015086;28;20103;-76
2021/11/29 11:34:05;;;;;;;74.72;38.10;;;;;;;;;;5030313;28;20029;-71
2021/11/29 11:36:32;;;;;;;135.13;58.25;;;;;;;;;;5033395;28;20021;-75
2021/11/29 11:39:04;;;;;;;43.20;23.85;;;;;;;;;;5034784;28;20025;-76
2021/11/29 11:41:32;;;;;;;86.57;39.75;;;;;;;;;;5034572;28;20021;-75
2021/11/29 11:43:59;;;;;;;58.45;28.77;;;;;;;;;;5010412;28;20026;-74
2021/11/29 11:46:25;;;;;;;75.28;36.33;;;;;;;;;;5032037;28;20032;-74
2021/11/29 11:48:51;;;;;;;62.30;31.48;;;;;;;;;;5034078;28;20032;-73
2021/11/29 11:51:18;;;;;;;33.75;18.92;;;;;;;;;;5034491;28;20030;-75
2021/11/29 11:53:44;;;;;;;32.28;19.50;;;;;;;;;;5034186;28;20036;-73
2021/11/29 11:56:10;;;;;;;54.50;28.17;;;;;;;;;;5033887;28;20048;-73
2021/11/29 11:58:42;;;;;;;60.58;30.45;;;;;;;;;;5034343;28;20010;-75
2021/11/29 12:01:18;;;;;;;25.15;16.35;;;;;;;;;;5037902;28;20036;-73
2021/11/29 12:03:48;;;;;;;46.72;25.13;;;;;;;;;;5035226;28;20022;-72
2021/11/29 12:06:18;;;;;;;40.20;21.70;;;;;;;;;;5035512;28;20505;-73
2021/11/29 12:08:47;;;;;;;29.73;17.33;;;;;;;;;;5035452;28;20018;-69
2021/11/29 12:11:26;;;;;;;42.70;22.85;;;;;;;;;;5035995;28;20125;-69
2021/11/29 12:14:01;;;;;;;30.70;18.95;;;;;;;;;;5033801;28;20018;-69
2021/11/29 12:16:32;;;;;;;51.75;27.17;;;;;;;;;;5033741;28;20021;-69
2021/11/29 12:19:01;;;;;;;;;;;;;;;;;;5034401;28;20541;-69
2021/11/29 12:21:33;;;;;;;45.10;22.58;;;;;;;;;;5019718;28;19906;-69
2021/11/29 12:23:59;;;;;;;37.00;20.83;;;;;;;;;;5027925;28;20037;-68
2021/11/29 12:26:46;;;;;;;48.33;24.55;;;;;;;;;;5033715;28;20510;-70
2021/11/29 12:29:24;;;;;;;27.58;16.27;;;;;;;;;;5023558;28;20092;-70
2021/11/29 12:32:06;;;;;;;37.15;20.65;;;;;;;;;;5022094;28;20040;-69
2021/11/29 12:34:44;;;;;;;29.30;17.13;;;;;;;;;;5033093;28;20029;-70
2021/11/29 12:37:11;;;;;;;22.35;14.25;;;;;;;;;;5028276;28;20038;-68
2021/11/29 12:39:43;;;;;;;21.90;13.52;;;;;;;;;;5030867;28;20017;-69
2021/11/29 12:42:26;;;;;;;30.77;17.73;;;;;;;;;;5033425;28;20037;-69
2021/11/29 12:44:58;;;;;;;22.75;14.13;;;;;;;;;;5005517;28;20021;-68
2021/11/29 12:47:24;;;;;;;25.00;14.73;;;;;;;;;;5033289;28;20048;-69
2021/11/29 12:49:50;;;;;;;26.83;15.80;;;;;;;;;;5033284;28;20032;-72
2021/11/29 12:52:35;;;;;;;26.10;13.88;;;;;;;;;;5033607;28;20034;-74
2021/11/29 12:55:02;;;;;;;19.55;12.88;;;;;;;;;;5033037;28;20021;-74
2021/11/29 12:57:30;;;;;;;30.80;17.60;;;;;;;;;;5021910;28;20022;-74
2021/11/29 12:59:59;;;;;;;21.45;13.75;;;;;;;;;;5028683;28;20030;-75
2021/11/29 13:02:39;;;;;;;20.95;14.10;;;;;;;;;;5031964;28;20779;-73
2021/11/29 13:05:25;;;;;;;23.88;14.15;;;;;;;;;;5033547;28;20478;-74
2021/11/29 13:08:01;;;;;;;29.90;16.55;;;;;;;;;;5031756;28;20090;-70
2021/11/29 13:10:46;;;;;;;22.27;14.57;;;;;;;;;;5031875;28;20657;-71
2021/11/29 13:13:32;;;;;;;25.67;16.50;;;;;;;;;;5029513;28;20116;-76
2021/11/29 13:16:00;;;;;;;39.20;21.60;;;;;;;;;;5030710;28;20034;-72
2021/11/29 13:18:53;;;;;;;36.65;21.27;;;;;;;;;;5022267;28;20073;-77
2021/11/29 13:21:28;;;;;;;33.30;18.17;;;;;;;;;;5011011;28;20052;-74
2021/11/29 13:23:56;;;;;;;51.38;26.25;;;;;;;;;;5030018;28;20045;-73
2021/11/29 13:26:23;;;;;;;21.80;14.27;;;;;;;;;;5036456;28;20029;-75
2021/11/29 13:28:51;;;;;;;39.60;21.92;;;;;;;;;;5033046;28;20042;-75
2021/11/29 13:31:24;;;;;;;31.63;19.20;;;;;;;;;;5014914;28;20032;-75
2021/11/29 13:33:50;;;;;;;50.08;26.48;;;;;;;;;;5026576;28;20021;-74
2021/11/29 13:36:16;;;;;;;30.98;16.98;;;;;;;;;;5032342;28;20078;-73
2021/11/29 13:38:42;;;;;;;21.02;13.10;;;;;;;;;;5030660;28;20060;-75
2021/11/29 13:41:18;;;;;;;24.90;16.45;;;;;;;;;;5032884;28;20033;-73
2021/11/29 13:43:45;;;;;;;23.63;14.65;;;;;;;;;;5032174;28;20045;-75
2021/11/29 13:46:12;;;;;;;52.45;27.02;;;;;;;;;;5030768;28;20606;-74
2021/11/29 13:48:39;;;;;;;24.70;14.98;;;;;;;;;;5031886;28;20102;-75
2021/11/29 13:51:05;;;;;;;34.80;19.45;;;;;;;;;;5032097;28;20048;-72
2021/11/29 13:53:33;;;;;;;34.85;19.08;;;;;;;;;;5031628;28;20024;-73
2021/11/29 13:56:00;;;;;;;20.75;12.57;;;;;;;;;;5031931;28;20025;-71
2021/11/29 13:58:30;;;;;;;26.20;16.33;;;;;;;;;;5026141;28;20407;-72
2021/11/29 14:00:58;;;;;;;19.33;13.43;;;;;;;;;;5031356;28;20025;-73
2021/11/29 14:03:26;;;;;;;37.33;20.83;;;;;;;;;;5031502;28;20022;-74
2021/11/29 14:05:52;;;;;;;21.27;14.15;;;;;;;;;;5030308;28;20022;-76
2021/11/29 14:08:23;;;;;;;32.22;17.88;;;;;;;;;;5030935;28;20036;-74
2021/11/29 14:10:49;;;;;;;30.02;18.40;;;;;;;;;;4994942;28;20073;-71
2021/11/29 14:13:17;;;;;;;23.10;14.70;;;;;;;;;;5010405;28;20032;-70
2021/11/29 14:16:00;;;;;;;25.15;13.95;;;;;;;;;;5015596;28;20080;-73
2021/11/29 14:18:27;;;;;;;41.80;22.25;;;;;;;;;;5041062;28;20030;-73
2021/11/29 14:20:54;;;;;;;30.85;17.08;;;;;;;;;;5024436;28;20041;-72
2021/11/29 14:23:21;;;;;;;25.08;16.02;;;;;;;;;;5011689;28;20033;-71